De Soto, Wisconsin
Current Conditions -  °F | °C
As of 1:35 PM on Friday 24 Oct 2014 (Local Time) from KY51 Reporting Station
Broken Clouds Broken Clouds  
Wind Chill: 62°   Ceiling: 7000
Heat Index: 62°   Visibility: 10mi
Dew Point: 55°   Wind: 12mph
Humidity: 77%   Direction: 150°SSE
Pressure: 29.92"   Gusts: 16mph
Location:  43.43°N, 91.2°W
Report Text: KY51 241835Z AUTO 15010G14KT 10SM SCT050 BKN070 BKN110 17/13 A2992 RMK AO1 T01660125
Loading
Personal Weather Stations






























Interactive Weather Map
Tropical Storm Tracking
New forecast layout! Learn more

10-Day Weather Forecast

Advertisements
Track Severe Weather on mobile